Time;durP1;ratioP1;P1;durP2;ratioP2;P2;SDS_P1;SDS_P2;PMS_P1;PMS_P2;Temp;Humidity;BMP_temperature;BMP_pressure;BME280_temperature;BME280_humidity;BME280_pressure;Samples;Min_cycle;Max_cycle;Signal;HPM_P1;HPM_P2
2021/11/28 00:00:27;;;;;;;3.28;2.15;;;0.00;99.90;;;;;;6107399;23;20342;-78
2021/11/28 00:02:56;;;;;;;2.67;2.58;;;0.10;99.90;;;;;;6096338;23;20033;-78
2021/11/28 00:05:26;;;;;;;2.67;2.10;;;0.20;99.90;;;;;;6132243;23;20028;-78
2021/11/28 00:13:22;;;;;;;2.25;2.15;;;0.20;99.90;;;;;;6134221;23;20441;-78
2021/11/28 00:15:50;;;;;;;2.70;2.45;;;0.10;99.90;;;;;;6124961;23;20018;-78
2021/11/28 00:18:18;;;;;;;2.60;2.38;;;0.00;99.90;;;;;;6131360;23;20026;-78
2021/11/28 00:20:46;;;;;;;1.65;1.45;;;0.00;99.90;;;;;;6133983;23;20018;-78
2021/11/28 00:23:13;;;;;;;12.27;5.78;;;0.10;99.90;;;;;;6127512;23;20041;-78
2021/11/28 00:25:41;;;;;;;2.15;2.05;;;0.10;99.90;;;;;;6132341;23;20014;-79
2021/11/28 00:28:13;;;;;;;1.77;1.67;;;0.10;99.90;;;;;;6134680;23;20017;-78
2021/11/28 00:30:40;;;;;;;;;;;0.10;99.90;;;;;;6103668;23;20353;-78
2021/11/28 00:33:08;;;;;;;1.95;1.85;;;0.10;99.90;;;;;;6134804;23;19916;-78
2021/11/28 00:35:36;;;;;;;2.10;2.00;;;0.10;99.90;;;;;;6125556;23;20029;-78
2021/11/28 00:38:04;;;;;;;2.13;1.95;;;0.10;99.90;;;;;;6132168;23;20028;-79
2021/11/28 00:40:32;;;;;;;1.77;1.73;;;0.10;99.90;;;;;;6133555;23;20021;-79
2021/11/28 00:43:00;;;;;;;2.00;1.90;;;0.10;99.90;;;;;;6128566;23;20041;-78
2021/11/28 00:45:30;;;;;;;1.70;1.60;;;0.10;99.90;;;;;;6134333;23;20014;-78
2021/11/28 00:47:59;;;;;;;2.00;1.90;;;0.20;99.90;;;;;;6124446;23;20037;-78
2021/11/28 00:53:12;;;;;;;2.20;2.10;;;0.20;99.90;;;;;;6130647;23;20468;-78
2021/11/28 00:55:41;;;;;;;2.53;2.10;;;0.20;99.90;;;;;;6123858;23;20017;-78
2021/11/28 00:58:09;;;;;;;2.70;2.42;;;0.30;99.90;;;;;;6081549;23;20033;-78
2021/11/28 01:00:38;;;;;;;1.73;1.63;;;0.20;99.90;;;;;;6098477;23;20018;-78
2021/11/28 01:03:07;;;;;;;2.72;1.70;;;0.20;99.90;;;;;;6127869;23;20369;-78
2021/11/28 01:05:36;;;;;;;2.08;1.98;;;0.20;99.90;;;;;;6107324;23;20021;-79
2021/11/28 01:08:06;;;;;;;4.85;1.90;;;0.20;99.90;;;;;;6134558;23;20338;-78
2021/11/28 01:10:33;;;;;;;1.60;1.50;;;0.20;99.90;;;;;;6073427;23;20485;-79
2021/11/28 01:13:01;;;;;;;2.38;2.17;;;0.20;99.90;;;;;;6108704;23;20310;-79
2021/11/28 01:15:30;;;;;;;1.80;1.70;;;0.30;99.90;;;;;;6100413;23;20022;-78
2021/11/28 01:17:58;;;;;;;2.70;2.50;;;0.30;99.90;;;;;;6131301;23;20023;-79
2021/11/28 01:20:26;;;;;;;2.20;2.10;;;0.30;99.90;;;;;;6133536;23;20338;-78
2021/11/28 01:22:54;;;;;;;1.85;1.75;;;0.20;99.90;;;;;;6128407;23;20022;-78
2021/11/28 01:25:22;;;;;;;1.65;1.55;;;0.10;99.90;;;;;;6097578;23;20045;-78
2021/11/28 01:27:50;;;;;;;1.75;1.65;;;0.10;99.90;;;;;;6124224;23;20030;-78
2021/11/28 01:30:18;;;;;;;1.67;1.58;;;0.20;99.90;;;;;;6104053;23;20389;-79
2021/11/28 01:32:47;;;;;;;2.78;2.58;;;0.10;99.90;;;;;;6134048;23;20018;-79
2021/11/28 01:35:17;;;;;;;1.85;1.75;;;0.20;99.90;;;;;;6100605;23;20472;-78
2021/11/28 01:37:45;;;;;;;3.42;1.70;;;0.20;99.90;;;;;;6106897;23;20450;-79
2021/11/28 01:40:18;;;;;;;1.42;1.33;;;0.20;99.90;;;;;;6107157;23;20014;-79
2021/11/28 01:42:52;;;;;;;7.88;2.25;;;0.20;99.90;;;;;;6128192;23;20030;-79
2021/11/28 01:45:28;;;;;;;2.30;2.10;;;0.30;99.90;;;;;;6134203;23;20021;-79
2021/11/28 01:48:00;;;;;;;1.95;1.40;;;0.40;99.90;;;;;;6097803;23;20022;-78
2021/11/28 01:50:31;;;;;;;1.90;1.80;;;0.30;99.90;;;;;;6103126;23;20030;-78
2021/11/28 01:53:02;;;;;;;1.85;1.77;;;0.40;99.90;;;;;;6100011;23;20029;-78
2021/11/28 01:55:32;;;;;;;1.67;1.58;;;0.50;99.90;;;;;;6093601;23;20023;-78
2021/11/28 01:58:03;;;;;;;1.80;1.70;;;0.50;99.90;;;;;;6067922;23;20133;-78
2021/11/28 02:00:58;;;;;;;2.53;2.33;;;0.40;99.90;;;;;;6102791;23;20014;-78
2021/11/28 02:04:21;;;;;;;2.43;2.20;;;0.40;99.90;;;;;;6092072;23;20258;-78
2021/11/28 02:07:40;;;;;;;3.17;2.78;;;0.40;99.90;;;;;;6095509;23;20358;-78
2021/11/28 02:10:48;;;;;;;2.42;2.25;;;0.50;99.90;;;;;;6097264;23;20041;-78
2021/11/28 02:13:19;;;;;;;2.22;2.08;;;0.60;99.90;;;;;;6102711;23;20307;-78
2021/11/28 02:15:47;;;;;;;4.10;2.38;;;0.50;99.90;;;;;;6093549;23;20026;-78
2021/11/28 02:18:21;;;;;;;3.25;2.20;;;0.40;99.90;;;;;;6099319;23;20037;-78
2021/11/28 02:20:50;;;;;;;2.30;2.13;;;0.40;99.90;;;;;;6092781;23;20014;-78
2021/11/28 02:23:19;;;;;;;3.25;3.00;;;0.40;99.90;;;;;;6095124;23;20034;-78
2021/11/28 02:25:49;;;;;;;2.00;1.90;;;0.40;99.90;;;;;;6100414;23;20014;-81
2021/11/28 02:28:17;;;;;;;2.08;1.85;;;0.40;99.90;;;;;;6102667;23;20029;-78
2021/11/28 02:30:45;;;;;;;2.20;2.00;;;0.50;99.90;;;;;;6098086;23;20038;-78
2021/11/28 02:33:13;;;;;;;2.80;2.22;;;0.40;99.90;;;;;;6102813;23;20021;-78
2021/11/28 02:35:41;;;;;;;2.40;2.28;;;0.40;99.90;;;;;;6092958;23;20022;-78
2021/11/28 02:38:10;;;;;;;4.57;1.95;;;0.40;99.90;;;;;;6099844;23;20030;-78
2021/11/28 02:40:40;;;;;;;2.17;1.90;;;0.30;99.90;;;;;;6078024;23;20014;-78
2021/11/28 02:43:09;;;;;;;;;;;0.30;99.90;;;;;;6092399;23;20038;-78
2021/11/28 02:45:39;;;;;;;8.40;2.10;;;0.30;99.90;;;;;;6101470;23;19925;-78
2021/11/28 02:48:10;;;;;;;3.80;1.90;;;0.30;99.90;;;;;;6104242;23;20018;-78
2021/11/28 02:50:39;;;;;;;;;;;0.30;99.90;;;;;;6068453;23;20058;-78
2021/11/28 02:53:09;;;;;;;2.53;2.42;;;0.30;99.90;;;;;;6109865;23;19921;-78
2021/11/28 02:55:40;;;;;;;2.10;2.00;;;0.30;99.90;;;;;;6123312;23;20026;-78
2021/11/28 02:58:10;;;;;;;3.10;2.67;;;0.30;99.90;;;;;;6073034;23;20025;-78
2021/11/28 03:00:43;;;;;;;3.33;3.03;;;0.30;99.90;;;;;;6083274;23;20033;-78
2021/11/28 03:03:12;;;;;;;1.55;1.48;;;0.20;99.90;;;;;;6100493;23;20022;-78
2021/11/28 03:05:40;;;;;;;2.75;2.55;;;0.20;99.90;;;;;;6106642;23;20059;-79
2021/11/28 03:08:08;;;;;;;2.13;2.00;;;0.20;99.90;;;;;;6133486;23;20013;-78
2021/11/28 03:10:37;;;;;;;1.73;1.63;;;0.20;99.90;;;;;;6101702;23;20029;-78
2021/11/28 03:13:15;;;;;;;3.55;2.40;;;0.20;99.90;;;;;;6132620;23;20014;-78
2021/11/28 03:15:43;;;;;;;2.55;2.22;;;0.20;99.90;;;;;;6124043;23;20021;-78
2021/11/28 03:18:16;;;;;;;2.53;2.33;;;0.10;99.90;;;;;;6104238;23;20022;-78
2021/11/28 03:20:44;;;;;;;2.67;2.47;;;0.10;99.90;;;;;;6106855;23;20010;-78
2021/11/28 03:23:14;;;;;;;2.42;2.30;;;0.10;99.90;;;;;;6100304;23;20366;-79
2021/11/28 03:25:42;;;;;;;2.75;2.55;;;0.10;99.90;;;;;;6131153;23;20022;-78
2021/11/28 03:28:19;;;;;;;3.10;2.30;;;0.10;99.90;;;;;;6107553;23;20017;-78
2021/11/28 03:30:48;;;;;;;2.67;2.17;;;0.10;99.90;;;;;;6127575;23;20022;-78
2021/11/28 03:33:22;;;;;;;2.88;2.67;;;0.10;99.90;;;;;;6132882;23;20025;-78
2021/11/28 03:36:19;;;;;;;2.65;2.08;;;0.10;99.90;;;;;;6070105;23;20030;-83
2021/11/28 03:38:48;;;;;;;4.15;2.55;;;0.10;99.90;;;;;;6101632;23;20034;-83
2021/11/28 03:41:18;;;;;;;1.85;1.75;;;0.10;99.90;;;;;;6073795;23;20018;-78
2021/11/28 03:43:46;;;;;;;3.00;2.80;;;0.10;99.90;;;;;;6099460;23;20029;-78
2021/11/28 03:46:14;;;;;;;3.42;2.80;;;0.20;99.90;;;;;;6105917;23;20033;-83
2021/11/28 03:48:43;;;;;;;2.63;2.35;;;0.10;99.90;;;;;;6109285;23;20024;-83
2021/11/28 03:51:16;;;;;;;2.22;2.10;;;0.00;99.90;;;;;;6101416;23;20026;-83
2021/11/28 03:53:45;;;;;;;2.10;2.00;;;0.10;99.90;;;;;;6102057;23;20018;-83
2021/11/28 03:56:15;;;;;;;2.13;2.03;;;0.10;99.90;;;;;;6108725;23;20445;-82
2021/11/28 03:58:43;;;;;;;2.58;2.40;;;0.10;99.90;;;;;;6104080;23;20344;-83
2021/11/28 04:01:13;;;;;;;2.42;2.15;;;0.00;99.90;;;;;;6109109;23;20014;-83
2021/11/28 04:03:41;;;;;;;2.33;2.08;;;0.10;99.90;;;;;;6099921;23;20030;-83
2021/11/28 04:06:29;;;;;;;10.63;2.38;;;0.10;99.90;;;;;;6124278;23;20029;-78
2021/11/28 04:08:57;;;;;;;4.43;2.47;;;0.10;99.90;;;;;;6074263;23;20026;-78
2021/11/28 04:11:25;;;;;;;2.58;2.15;;;0.10;99.90;;;;;;6076750;23;20056;-83
2021/11/28 04:13:53;;;;;;;2.47;2.22;;;0.10;99.90;;;;;;6051178;23;20028;-83
2021/11/28 04:16:21;;;;;;;3.40;3.13;;;0.10;99.90;;;;;;6075303;23;20018;-83
2021/11/28 04:18:49;;;;;;;3.55;2.08;;;0.10;99.90;;;;;;6079609;23;20033;-78
2021/11/28 04:21:19;;;;;;;2.55;2.35;;;0.10;99.90;;;;;;6108605;23;20021;-78
2021/11/28 04:23:48;;;;;;;3.42;2.03;;;0.10;99.90;;;;;;6098344;23;20025;-78
2021/11/28 04:26:17;;;;;;;4.13;3.55;;;0.20;99.90;;;;;;6105115;23;20029;-83
2021/11/28 04:28:46;;;;;;;3.60;3.33;;;0.20;99.90;;;;;;6108656;23;20456;-83
2021/11/28 04:31:13;;;;;;;2.83;2.33;;;0.30;99.90;;;;;;6101436;23;20033;-83
2021/11/28 04:33:41;;;;;;;2.40;2.03;;;0.30;99.90;;;;;;6073772;23;20021;-79
2021/11/28 04:36:09;;;;;;;4.30;2.33;;;0.30;99.90;;;;;;6134168;23;20018;-78
2021/11/28 04:38:37;;;;;;;3.58;2.55;;;0.40;99.90;;;;;;6103884;23;20457;-78
2021/11/28 04:41:08;;;;;;;1.88;1.77;;;0.30;99.90;;;;;;6107599;23;20025;-78
2021/11/28 04:43:43;;;;;;;2.95;2.75;;;0.30;99.90;;;;;;6099144;23;20025;-78
2021/11/28 04:46:11;;;;;;;2.67;2.47;;;0.30;99.90;;;;;;6105239;23;20480;-78
2021/11/28 04:48:38;;;;;;;2.25;2.05;;;0.30;99.90;;;;;;6108535;23;20017;-78
2021/11/28 04:51:19;;;;;;;2.70;2.60;;;0.30;99.90;;;;;;6073520;23;20022;-78
2021/11/28 04:53:47;;;;;;;3.03;2.30;;;0.30;99.90;;;;;;6073071;23;20053;-78
2021/11/28 04:56:15;;;;;;;2.13;2.00;;;0.30;99.90;;;;;;6084163;23;20014;-83
2021/11/28 04:58:43;;;;;;;2.42;2.10;;;0.30;99.90;;;;;;6078560;23;20018;-78
2021/11/28 05:01:11;;;;;;;4.50;2.55;;;0.20;99.90;;;;;;6133688;23;20013;-78
2021/11/28 05:03:41;;;;;;;3.90;2.57;;;0.20;99.90;;;;;;6098687;23;20052;-78
2021/11/28 05:06:48;;;;;;;7.00;2.53;;;0.20;99.90;;;;;;6006189;23;20028;-78
2021/11/28 05:09:29;;;;;;;2.55;2.35;;;0.20;99.90;;;;;;6014835;23;20064;-78
2021/11/28 05:11:57;;;;;;;2.80;2.60;;;0.10;99.90;;;;;;6049380;23;20026;-78
2021/11/28 05:14:29;;;;;;;4.22;3.08;;;0.00;99.90;;;;;;6103654;23;20338;-78
2021/11/28 05:16:57;;;;;;;2.45;2.15;;;0.00;99.90;;;;;;6107951;23;20459;-78
2021/11/28 05:19:35;;;;;;;3.75;2.60;;;0.00;99.90;;;;;;6099330;23;20014;-83
2021/11/28 05:22:23;;;;;;;4.63;4.22;;;0.10;99.90;;;;;;6104459;23;20349;-83
2021/11/28 05:24:52;;;;;;;2.50;2.30;;;0.10;99.90;;;;;;6107234;23;20014;-82
2021/11/28 05:27:23;;;;;;;2.70;2.50;;;0.10;99.90;;;;;;6073761;23;20033;-78
2021/11/28 05:29:51;;;;;;;2.78;2.35;;;0.10;99.90;;;;;;6131552;23;20353;-79
2021/11/28 05:32:20;;;;;;;1.88;1.70;;;0.10;99.90;;;;;;6108015;23;20035;-83
2021/11/28 05:34:51;;;;;;;7.03;2.75;;;0.10;99.90;;;;;;6127740;23;20033;-78
2021/11/28 05:37:48;;;;;;;2.80;2.60;;;0.10;99.90;;;;;;6098669;23;20018;-83
2021/11/28 05:40:23;;;;;;;3.63;3.08;;;0.20;99.90;;;;;;6106957;23;20013;-83
2021/11/28 05:42:53;;;;;;;2.65;2.45;;;0.30;99.90;;;;;;6128191;23;20458;-83
2021/11/28 05:45:23;;;;;;;;;;;0.20;99.90;;;;;;6085105;23;20018;-83
2021/11/28 05:47:56;;;;;;;4.70;2.58;;;0.20;99.90;;;;;;6098971;23;19921;-83
2021/11/28 05:50:28;;;;;;;3.90;3.58;;;0.20;99.90;;;;;;6096512;23;20026;-82
2021/11/28 05:52:56;;;;;;;3.67;3.13;;;0.20;99.90;;;;;;6100420;23;20018;-82
2021/11/28 05:55:25;;;;;;;2.70;2.50;;;0.20;99.90;;;;;;6093710;23;20429;-78
2021/11/28 05:57:56;;;;;;;2.95;2.63;;;0.20;99.90;;;;;;6100868;23;20096;-81
2021/11/28 06:00:27;;;;;;;3.45;3.03;;;0.10;99.90;;;;;;6102260;23;20034;-78
2021/11/28 06:03:02;;;;;;;5.40;3.03;;;0.10;99.90;;;;;;6096260;23;20034;-78
2021/11/28 06:05:38;;;;;;;3.30;3.00;;;0.20;99.90;;;;;;6102710;23;20014;-79
2021/11/28 06:08:14;;;;;;;10.68;6.00;;;0.10;99.90;;;;;;6102448;23;20437;-78
2021/11/28 06:10:46;;;;;;;3.28;2.97;;;0.00;99.90;;;;;;6096276;23;20037;-78
2021/11/28 06:13:13;;;;;;;2.20;1.98;;;0.00;99.90;;;;;;6068799;23;20022;-78
2021/11/28 06:15:47;;;;;;;2.40;2.22;;;0.00;99.90;;;;;;6070174;23;20026;-78
2021/11/28 06:18:33;;;;;;;2.80;2.60;;;0.00;99.90;;;;;;6099868;23;20026;-78
2021/11/28 06:21:20;;;;;;;3.95;2.58;;;0.00;99.90;;;;;;6103612;23;20068;-78
2021/11/28 06:24:03;;;;;;;2.35;1.98;;;0.00;99.90;;;;;;6091117;23;20027;-78
2021/11/28 06:26:30;;;;;;;2.53;2.38;;;0.00;99.90;;;;;;6098255;23;20026;-78
2021/11/28 06:28:59;;;;;;;2.58;2.38;;;0.00;99.90;;;;;;6068814;23;20019;-78
2021/11/28 06:31:27;;;;;;;3.42;2.70;;;0.00;99.90;;;;;;6094050;23;20019;-78
2021/11/28 06:34:14;;;;;;;2.30;2.10;;;0.00;99.90;;;;;;6100685;23;20025;-78
2021/11/28 06:37:00;;;;;;;2.65;2.45;;;0.10;99.90;;;;;;6102909;23;20022;-78
2021/11/28 06:39:47;;;;;;;2.05;1.88;;;0.10;99.90;;;;;;6088277;23;20022;-80
2021/11/28 06:42:39;;;;;;;2.08;1.88;;;0.10;99.90;;;;;;6095576;23;20030;-81
2021/11/28 06:45:08;;;;;;;2.75;2.50;;;0.10;99.90;;;;;;6101721;23;20018;-79
2021/11/28 06:47:47;;;;;;;3.28;2.97;;;0.10;99.90;;;;;;6091085;23;20030;-80
2021/11/28 06:50:15;;;;;;;2.42;2.33;;;0.20;99.90;;;;;;6072400;23;20030;-80
2021/11/28 06:52:46;;;;;;;3.00;2.17;;;0.10;99.90;;;;;;6095479;23;20030;-81
2021/11/28 06:55:26;;;;;;;4.07;2.80;;;0.20;99.90;;;;;;6120774;23;20353;-80
2021/11/28 06:58:10;;;;;;;2.60;2.40;;;0.10;99.90;;;;;;6102593;23;20036;-80
2021/11/28 07:00:38;;;;;;;3.13;2.83;;;0.10;99.90;;;;;;6130435;23;20021;-80
2021/11/28 07:03:06;;;;;;;3.38;3.05;;;0.10;99.90;;;;;;6098422;23;20026;-81
2021/11/28 07:05:52;;;;;;;8.65;3.08;;;0.10;99.90;;;;;;6073850;23;20022;-80
2021/11/28 07:08:20;;;;;;;2.15;2.05;;;0.20;99.90;;;;;;6105614;23;20033;-80
2021/11/28 07:10:49;;;;;;;6.82;3.33;;;0.00;99.90;;;;;;6067992;23;20026;-79
2021/11/28 07:13:18;;;;;;;3.28;3.08;;;0.10;99.90;;;;;;6105346;23;20014;-79
2021/11/28 07:15:46;;;;;;;3.85;3.55;;;0.20;99.90;;;;;;6095799;23;20025;-80
2021/11/28 07:18:27;;;;;;;;;;;0.10;99.90;;;;;;6101502;23;20376;-80
2021/11/28 07:21:07;;;;;;;7.60;3.47;;;0.10;99.90;;;;;;6130267;23;20244;-79
2021/11/28 07:23:35;;;;;;;4.05;3.58;;;0.10;99.90;;;;;;6097041;23;20393;-81
2021/11/28 07:26:05;;;;;;;3.88;3.58;;;0.10;99.90;;;;;;6101058;23;20021;-80
2021/11/28 07:28:43;;;;;;;2.95;2.67;;;0.00;99.90;;;;;;6105089;23;20209;-80
2021/11/28 07:31:13;;;;;;;5.95;3.45;;;0.10;99.90;;;;;;6069865;23;20029;-79
2021/11/28 07:34:01;;;;;;;3.67;3.35;;;0.20;99.90;;;;;;6094961;23;20026;-80
2021/11/28 07:36:34;;;;;;;8.20;3.47;;;0.20;99.90;;;;;;6094838;23;20481;-80
2021/11/28 07:39:09;;;;;;;5.78;5.22;;;0.30;99.90;;;;;;6095939;23;20034;-80
2021/11/28 07:41:39;;;;;;;5.65;4.38;;;0.30;99.90;;;;;;6103497;23;20018;-80
2021/11/28 07:44:45;;;;;;;5.10;4.18;;;0.40;99.90;;;;;;6121510;23;20330;-79
2021/11/28 07:47:31;;;;;;;5.70;4.05;;;0.40;99.90;;;;;;6121854;23;20036;-80
2021/11/28 07:50:34;;;;;;;8.57;5.57;;;0.40;99.90;;;;;;6074833;23;20049;-80
2021/11/28 07:53:03;;;;;;;6.03;4.18;;;0.50;99.90;;;;;;6101800;23;20053;-80
2021/11/28 07:55:30;;;;;;;4.03;3.72;;;0.50;99.90;;;;;;6093837;23;20030;-80
2021/11/28 07:58:00;;;;;;;2.95;2.75;;;0.50;99.90;;;;;;6128219;23;20037;-79
2021/11/28 08:00:48;;;;;;;7.00;5.07;;;0.60;99.90;;;;;;6119679;23;20443;-80
2021/11/28 08:03:25;;;;;;;6.78;3.83;;;0.70;99.90;;;;;;6096839;23;20354;-79
2021/11/28 08:06:12;;;;;;;6.30;4.53;;;0.60;99.90;;;;;;6127277;23;20029;-79
2021/11/28 08:08:58;;;;;;;4.22;3.65;;;0.60;99.90;;;;;;6129050;23;20457;-80
2021/11/28 08:11:34;;;;;;;4.30;3.28;;;0.70;99.90;;;;;;6071733;23;20025;-80
2021/11/28 08:14:01;;;;;;;4.95;4.25;;;0.70;99.90;;;;;;6070286;23;20030;-79
2021/11/28 08:16:29;;;;;;;7.93;4.13;;;0.70;99.90;;;;;;6131081;23;20449;-79
2021/11/28 08:18:57;;;;;;;3.40;3.15;;;0.80;99.90;;;;;;6124034;23;20029;-80
2021/11/28 08:21:28;;;;;;;6.10;3.65;;;0.60;99.90;;;;;;6130565;23;20018;-79
2021/11/28 08:23:57;;;;;;;3.80;3.50;;;0.60;99.90;;;;;;6119125;23;20381;-79
2021/11/28 08:26:29;;;;;;;4.20;3.80;;;0.60;99.90;;;;;;6100946;23;20046;-79
2021/11/28 08:28:57;;;;;;;3.33;3.13;;;0.80;99.90;;;;;;6106698;23;20349;-79
2021/11/28 08:31:25;;;;;;;2.72;2.53;;;0.70;99.90;;;;;;6123569;23;20472;-80
2021/11/28 08:34:12;;;;;;;4.18;3.60;;;0.60;99.90;;;;;;6129461;23;20057;-79
2021/11/28 08:37:06;;;;;;;3.83;2.90;;;0.60;99.90;;;;;;6117281;23;20022;-80
2021/11/28 08:39:34;;;;;;;3.45;3.13;;;0.70;99.90;;;;;;6071563;23;20026;-79
2021/11/28 08:42:04;;;;;;;3.83;3.50;;;0.70;99.90;;;;;;6129170;23;20070;-80
2021/11/28 08:44:31;;;;;;;3.60;3.25;;;0.80;99.90;;;;;;6132210;23;20041;-79
2021/11/28 08:46:59;;;;;;;3.15;2.90;;;0.70;99.90;;;;;;6126268;23;20454;-80
2021/11/28 08:49:30;;;;;;;3.70;3.37;;;0.80;99.90;;;;;;6106244;23;20021;-79
2021/11/28 08:51:58;;;;;;;5.20;3.63;;;1.00;99.90;;;;;;6120064;23;20256;-79
2021/11/28 08:54:30;;;;;;;6.03;4.43;;;1.10;99.90;;;;;;6119887;23;20042;-80
2021/11/28 08:56:58;;;;;;;;;;;1.20;99.90;;;;;;6131278;23;20025;-80
2021/11/28 08:59:28;;;;;;;3.55;3.25;;;1.40;99.90;;;;;;6122546;23;19917;-79
2021/11/28 09:01:57;;;;;;;3.03;2.80;;;1.70;99.90;;;;;;6128097;23;20029;-80
2021/11/28 09:04:26;;;;;;;3.55;3.25;;;1.70;99.90;;;;;;6104804;23;20050;-80
2021/11/28 09:06:54;;;;;;;3.67;3.38;;;1.70;99.90;;;;;;6124727;23;20026;-80
2021/11/28 09:09:21;;;;;;;3.17;2.90;;;1.60;99.90;;;;;;6069216;23;20353;-79
2021/11/28 09:11:49;;;;;;;2.83;2.65;;;1.30;99.90;;;;;;6094321;23;20036;-79
2021/11/28 09:14:17;;;;;;;4.82;3.40;;;1.20;99.90;;;;;;6127835;23;20080;-79
2021/11/28 09:16:45;;;;;;;2.75;2.53;;;1.20;99.90;;;;;;6106443;23;20017;-79
2021/11/28 09:19:20;;;;;;;4.00;3.60;;;1.10;99.90;;;;;;6124573;23;20334;-80
2021/11/28 09:21:49;;;;;;;3.35;3.05;;;1.10;99.90;;;;;;6129926;23;20469;-80
2021/11/28 09:26:57;;;;;;;2.95;2.75;;;1.20;99.90;;;;;;6099971;23;20057;-81
2021/11/28 09:29:25;;;;;;;3.40;3.13;;;1.20;99.90;;;;;;6132176;23;20014;-80
2021/11/28 09:31:52;;;;;;;2.92;2.65;;;1.30;99.90;;;;;;6121241;23;20072;-83
2021/11/28 09:34:22;;;;;;;2.85;2.65;;;1.30;99.90;;;;;;6071257;23;20030;-77
2021/11/28 09:36:50;;;;;;;2.65;2.47;;;1.30;99.90;;;;;;6131475;23;20334;-80
2021/11/28 09:39:18;;;;;;;3.08;2.40;;;1.20;99.90;;;;;;6121813;23;20033;-81
2021/11/28 09:42:04;;;;;;;4.35;3.33;;;1.20;99.90;;;;;;6128412;23;20342;-79
2021/11/28 09:44:35;;;;;;;7.25;3.25;;;1.20;99.90;;;;;;6132071;23;20014;-80
2021/11/28 09:47:05;;;;;;;3.35;3.03;;;1.10;99.90;;;;;;6125729;23;20037;-81
2021/11/28 09:49:33;;;;;;;3.85;3.65;;;1.10;99.90;;;;;;6131425;23;20021;-80
2021/11/28 09:52:08;;;;;;;6.32;4.13;;;1.00;99.90;;;;;;6120715;23;20026;-81
2021/11/28 09:54:39;;;;;;;3.72;3.10;;;1.00;99.90;;;;;;6119085;23;20034;-82
2021/11/28 09:57:16;;;;;;;2.47;2.38;;;1.00;99.90;;;;;;6095924;23;20022;-82
2021/11/28 09:59:45;;;;;;;6.90;6.10;;;1.10;99.90;;;;;;6096689;23;20049;-79
2021/11/28 10:02:34;;;;;;;4.05;3.85;;;1.30;99.90;;;;;;6102728;23;20026;-80
2021/11/28 10:05:07;;;;;;;3.60;3.30;;;1.40;99.90;;;;;;6105347;23;20025;-81
2021/11/28 10:07:38;;;;;;;4.07;3.67;;;1.50;99.90;;;;;;6123485;23;20022;-80
2021/11/28 10:10:07;;;;;;;4.03;3.72;;;1.60;99.90;;;;;;6092750;23;20426;-80
2021/11/28 10:12:37;;;;;;;3.15;2.92;;;1.70;99.90;;;;;;6132006;23;20018;-79
2021/11/28 10:15:08;;;;;;;4.30;3.70;;;1.90;99.90;;;;;;6071666;23;20030;-79
2021/11/28 10:17:38;;;;;;;3.40;3.10;;;1.80;99.90;;;;;;6094638;23;20018;-84
2021/11/28 10:20:13;;;;;;;3.90;3.60;;;1.80;99.90;;;;;;6070779;23;20022;-79
2021/11/28 10:22:41;;;;;;;4.63;3.88;;;1.80;99.90;;;;;;6100353;23;20022;-80
2021/11/28 10:25:30;;;;;;;3.53;3.22;;;1.70;99.90;;;;;;6093074;23;20014;-81
2021/11/28 10:28:09;;;;;;;2.75;2.55;;;1.70;99.90;;;;;;6095487;23;20026;-81
2021/11/28 10:30:43;;;;;;;5.05;2.72;;;1.70;99.90;;;;;;6100465;23;20025;-82
2021/11/28 10:33:15;;;;;;;4.05;3.30;;;1.60;99.90;;;;;;6131599;23;20029;-83
2021/11/28 10:36:07;;;;;;;5.55;3.03;;;1.70;99.90;;;;;;6121630;23;20034;-81
2021/11/28 10:38:40;;;;;;;3.47;3.17;;;1.70;99.90;;;;;;6100747;23;20033;-83
2021/11/28 10:41:26;;;;;;;3.13;2.92;;;1.70;99.90;;;;;;6129341;23;20445;-81
2021/11/28 10:43:55;;;;;;;9.40;4.85;;;1.70;99.90;;;;;;6121956;23;20490;-82
2021/11/28 10:46:33;;;;;;;2.70;2.50;;;1.60;99.90;;;;;;6095976;23;20226;-84
2021/11/28 10:49:17;;;;;;;2.08;1.95;;;1.60;99.90;;;;;;6097221;23;20018;-82
2021/11/28 10:51:49;;;;;;;2.63;2.50;;;1.70;99.90;;;;;;6097589;23;20030;-81
2021/11/28 10:54:28;;;;;;;2.55;2.35;;;1.60;99.90;;;;;;6123859;23;20030;-82
2021/11/28 10:57:10;;;;;;;2.70;1.80;;;1.50;99.90;;;;;;6072515;23;20449;-81
2021/11/28 10:59:40;;;;;;;2.45;1.90;;;1.50;99.90;;;;;;6096620;23;20025;-82
2021/11/28 11:02:32;;;;;;;1.98;1.85;;;1.50;99.90;;;;;;6096551;23;20036;-83
2021/11/28 11:05:04;;;;;;;3.10;2.35;;;1.60;99.90;;;;;;6132477;23;20022;-83
2021/11/28 11:07:54;;;;;;;2.30;2.10;;;1.70;99.90;;;;;;6123320;23;20033;-81
2021/11/28 11:10:29;;;;;;;2.55;2.35;;;1.90;99.90;;;;;;6127869;23;20456;-82
2021/11/28 11:12:58;;;;;;;2.17;1.70;;;1.90;99.90;;;;;;6107520;23;20014;-83
2021/11/28 11:15:39;;;;;;;1.95;1.85;;;1.90;99.90;;;;;;6125301;23;20071;-82
2021/11/28 11:18:10;;;;;;;1.60;1.53;;;1.90;99.90;;;;;;6104042;23;20028;-85
2021/11/28 11:20:44;;;;;;;2.55;2.03;;;1.90;99.90;;;;;;6072958;23;20037;-84
2021/11/28 11:23:39;;;;;;;1.77;1.70;;;1.90;99.90;;;;;;6124590;23;20197;-85
2021/11/28 11:26:13;;;;;;;3.03;2.78;;;1.90;99.90;;;;;;6092161;23;20045;-85
2021/11/28 11:29:04;;;;;;;6.07;3.20;;;1.70;99.90;;;;;;6130457;23;20234;-86
2021/11/28 11:31:37;;;;;;;1.67;1.58;;;1.80;99.90;;;;;;6121520;23;20030;-86
2021/11/28 11:34:26;;;;;;;2.38;1.42;;;1.70;99.90;;;;;;6046395;23;20029;-82
2021/11/28 11:37:02;;;;;;;0.93;0.90;;;1.70;99.90;;;;;;6071151;23;20333;-84
2021/11/28 11:39:32;;;;;;;1.45;1.23;;;1.70;99.90;;;;;;6094042;23;20029;-84
2021/11/28 11:42:01;;;;;;;1.50;1.40;;;1.50;99.90;;;;;;6093456;23;20189;-85
2021/11/28 11:44:29;;;;;;;1.52;1.42;;;1.50;99.90;;;;;;6081016;23;20014;-85
2021/11/28 11:46:59;;;;;;;1.20;1.20;;;1.60;99.90;;;;;;6124776;23;20014;-83
2021/11/28 11:49:28;;;;;;;1.25;1.25;;;1.70;99.90;;;;;;6090017;23;20342;-85
2021/11/28 11:51:58;;;;;;;1.08;1.08;;;1.80;99.90;;;;;;6092873;23;20026;-84
2021/11/28 11:54:34;;;;;;;1.05;1.05;;;1.80;99.90;;;;;;6119009;23;20330;-86
2021/11/28 11:57:13;;;;;;;2.50;1.10;;;1.80;99.90;;;;;;6070129;23;20018;-85
2021/11/28 12:00:03;;;;;;;3.13;2.33;;;1.80;99.90;;;;;;6094902;23;20033;-79
2021/11/28 12:02:46;;;;;;;1.20;1.20;;;1.70;99.90;;;;;;6125719;23;20361;-86
2021/11/28 12:05:35;;;;;;;1.45;1.35;;;1.50;99.90;;;;;;6102246;23;20024;-85
2021/11/28 12:08:15;;;;;;;1.35;1.30;;;1.40;99.90;;;;;;6056777;23;20037;-86
2021/11/28 12:10:49;;;;;;;1.55;1.10;;;1.30;99.90;;;;;;6123857;23;20026;-87
2021/11/28 12:13:26;;;;;;;1.67;1.55;;;1.30;99.90;;;;;;6132609;23;20349;-85
2021/11/28 12:16:03;;;;;;;1.25;0.90;;;1.40;99.90;;;;;;6071647;23;20037;-85
2021/11/28 12:18:35;;;;;;;4.78;2.50;;;1.40;99.90;;;;;;6127610;23;20032;-87
2021/11/28 12:21:11;;;;;;;3.65;1.52;;;1.40;99.90;;;;;;6070830;23;20029;-87
2021/11/28 12:24:08;;;;;;;0.95;0.95;;;1.50;99.90;;;;;;6122952;23;20037;-86
2021/11/28 12:26:58;;;;;;;1.98;1.88;;;1.60;99.90;;;;;;6096551;23;20353;-85
2021/11/28 12:29:41;;;;;;;1.30;1.20;;;1.70;99.90;;;;;;6050200;23;20022;-88
2021/11/28 12:32:09;;;;;;;1.13;1.10;;;1.80;99.90;;;;;;6127783;23;20026;-88
2021/11/28 12:34:52;;;;;;;3.00;1.40;;;1.70;99.90;;;;;;6095548;23;20029;-87
2021/11/28 12:37:29;;;;;;;2.13;1.20;;;1.80;99.90;;;;;;6132094;23;20017;-89
2021/11/28 12:40:17;;;;;;;6.53;2.17;;;1.70;99.90;;;;;;6092844;23;20021;-86
2021/11/28 12:42:46;;;;;;;2.92;2.72;;;1.80;99.90;;;;;;6121243;23;20021;-87
2021/11/28 12:45:39;;;;;;;1.20;1.10;;;1.70;99.90;;;;;;6098011;23;20029;-88
2021/11/28 12:48:24;;;;;;;8.57;1.42;;;1.60;99.90;;;;;;6105148;23;20464;-87
2021/11/28 12:50:59;;;;;;;1.88;1.60;;;1.70;99.90;;;;;;6096975;23;20026;-88
2021/11/28 12:53:40;;;;;;;4.75;1.88;;;1.70;99.90;;;;;;6129815;23;20033;-88
2021/11/28 12:56:12;;;;;;;1.42;1.33;;;1.70;99.90;;;;;;6116324;23;20382;-89
2021/11/28 12:59:14;;;;;;;2.65;2.25;;;1.70;99.90;;;;;;6071120;23;20057;-87
2021/11/28 13:01:49;;;;;;;1.40;1.30;;;1.60;99.90;;;;;;6130456;23;20460;-88
2021/11/28 13:04:38;;;;;;;2.78;1.13;;;1.70;99.90;;;;;;6131582;23;20033;-88
2021/11/28 13:07:35;;;;;;;1.58;1.48;;;1.70;99.90;;;;;;6125140;23;20436;-87
2021/11/28 13:10:18;;;;;;;4.70;2.08;;;1.90;99.90;;;;;;6126180;23;20052;-87
2021/11/28 13:12:46;;;;;;;2.33;1.52;;;1.80;99.90;;;;;;6096186;23;20077;-87
2021/11/28 13:15:38;;;;;;;1.50;1.40;;;1.80;99.90;;;;;;6098256;23;20022;-86
2021/11/28 13:18:11;;;;;;;1.20;1.20;;;1.70;99.90;;;;;;6082962;23;20232;-87
2021/11/28 13:21:09;;;;;;;1.50;1.40;;;1.70;99.90;;;;;;6094711;23;20033;-87
2021/11/28 13:23:58;;;;;;;1.15;1.15;;;1.70;99.90;;;;;;6120085;23;20034;-86
2021/11/28 13:26:57;;;;;;;1.33;1.33;;;1.60;99.90;;;;;;6096228;23;20453;-87
2021/11/28 13:29:54;;;;;;;1.52;1.42;;;1.60;99.90;;;;;;6105212;23;20025;-87
2021/11/28 13:32:27;;;;;;;2.13;2.03;;;1.60;99.90;;;;;;6132115;23;20022;-87
2021/11/28 13:34:58;;;;;;;1.50;1.40;;;1.70;99.90;;;;;;6098859;23;20018;-87
2021/11/28 13:37:27;;;;;;;1.30;1.20;;;1.50;99.90;;;;;;6130907;23;20029;-86
2021/11/28 13:39:57;;;;;;;5.75;1.65;;;1.50;99.90;;;;;;6096953;23;20032;-86
2021/11/28 13:42:25;;;;;;;1.38;1.27;;;1.40;99.90;;;;;;6126901;23;20022;-85
2021/11/28 13:44:53;;;;;;;1.60;1.50;;;1.30;99.90;;;;;;6081629;23;20124;-86